Time;durP1;ratioP1;P1;durP2;ratioP2;P2;SDS_P1;SDS_P2;PMS_P1;PMS_P2;Temp;Humidity;BMP_temperature;BMP_pressure;BME280_temperature;BME280_humidity;BME280_pressure;Samples;Min_cycle;Max_cycle;Signal;HPM_P1;HPM_P2
2023/12/23 00:01:48;;;;;;;0.75;0.38;;;6.70;99.90;;;;;;4893225;29;20036;-77
2023/12/23 00:04:14;;;;;;;1.35;0.60;;;6.70;99.90;;;;;;4891764;29;20052;-77
2023/12/23 00:06:39;;;;;;;0.85;0.32;;;6.50;99.90;;;;;;4892506;29;20043;-77
2023/12/23 00:09:05;;;;;;;1.65;0.45;;;6.50;99.90;;;;;;4893458;29;20160;-77
2023/12/23 00:11:30;;;;;;;1.25;0.52;;;6.50;99.90;;;;;;4893081;29;21101;-77
2023/12/23 00:13:56;;;;;;;1.67;0.55;;;6.40;99.90;;;;;;4893103;29;20490;-76
2023/12/23 00:16:24;;;;;;;1.13;0.40;;;6.30;99.90;;;;;;4893598;29;20525;-77
2023/12/23 00:18:49;;;;;;;0.63;0.22;;;6.30;99.90;;;;;;4892455;29;20055;-76
2023/12/23 00:21:15;;;;;;;0.90;0.40;;;6.30;99.90;;;;;;4893124;29;20496;-76
2023/12/23 00:23:41;;;;;;;1.27;0.43;;;6.30;99.90;;;;;;4891885;29;21159;-76
2023/12/23 00:26:07;;;;;;;0.82;0.35;;;6.10;99.90;;;;;;4890607;29;20390;-77
2023/12/23 00:28:32;;;;;;;0.50;0.25;;;6.30;99.90;;;;;;4891744;29;20032;-76
2023/12/23 00:30:58;;;;;;;1.35;0.50;;;6.50;99.90;;;;;;4892637;29;20051;-77
2023/12/23 00:33:23;;;;;;;2.08;0.55;;;6.60;99.90;;;;;;4892846;29;20043;-76
2023/12/23 00:35:49;;;;;;;0.65;0.30;;;6.50;99.90;;;;;;4892162;29;20523;-78
2023/12/23 00:38:15;;;;;;;0.65;0.38;;;6.60;99.90;;;;;;4892103;29;20044;-77
2023/12/23 00:40:40;;;;;;;1.83;0.50;;;6.60;99.90;;;;;;4892437;29;20039;-76
2023/12/23 00:43:06;;;;;;;0.52;0.20;;;6.70;99.90;;;;;;4892683;29;20047;-76
2023/12/23 00:45:32;;;;;;;0.55;0.20;;;6.70;99.90;;;;;;4893115;29;20126;-76
2023/12/23 00:47:57;;;;;;;1.10;0.30;;;6.70;99.90;;;;;;4891845;29;20036;-77
2023/12/23 00:50:23;;;;;;;1.08;0.50;;;6.50;99.90;;;;;;4893301;29;20127;-77
2023/12/23 00:52:48;;;;;;;0.90;0.40;;;6.30;99.90;;;;;;4890966;29;20103;-76
2023/12/23 00:55:14;;;;;;;0.98;0.50;;;6.20;99.90;;;;;;4891375;29;20040;-76
2023/12/23 00:57:40;;;;;;;0.52;0.40;;;6.20;99.90;;;;;;4893143;29;20035;-75
2023/12/23 01:00:06;;;;;;;0.40;0.20;;;6.00;99.90;;;;;;4895572;29;20068;-75
2023/12/23 01:02:32;;;;;;;0.85;0.60;;;5.90;99.90;;;;;;4899235;29;20707;-77
2023/12/23 01:04:58;;;;;;;0.30;0.17;;;6.00;99.90;;;;;;4900397;29;20055;-75
2023/12/23 01:07:23;;;;;;;0.85;0.50;;;6.20;99.90;;;;;;4900402;29;20044;-76
2023/12/23 01:09:49;;;;;;;0.77;0.30;;;6.50;99.90;;;;;;4902384;29;20063;-76
2023/12/23 01:12:15;;;;;;;1.20;0.35;;;6.50;99.90;;;;;;4901116;29;20116;-76
2023/12/23 01:14:40;;;;;;;2.75;0.63;;;6.40;99.90;;;;;;4899512;29;20063;-76
2023/12/23 01:17:06;;;;;;;0.75;0.32;;;6.60;99.90;;;;;;4901873;29;20040;-76
2023/12/23 01:19:32;;;;;;;1.10;0.30;;;6.50;99.90;;;;;;4899951;29;20052;-75
2023/12/23 01:21:57;;;;;;;1.00;0.30;;;6.70;99.90;;;;;;4901060;29;20043;-76
2023/12/23 01:24:23;;;;;;;0.95;0.30;;;6.60;99.90;;;;;;4901876;29;20051;-76
2023/12/23 01:26:48;;;;;;;1.27;0.50;;;6.40;99.90;;;;;;4900361;29;20048;-75
2023/12/23 01:29:14;;;;;;;1.05;0.50;;;6.30;99.90;;;;;;4899963;29;20078;-76
2023/12/23 01:31:40;;;;;;;1.27;0.35;;;6.20;99.90;;;;;;4899900;29;20075;-76
2023/12/23 01:34:05;;;;;;;1.73;0.55;;;6.00;99.90;;;;;;4898943;29;20043;-76
2023/12/23 01:36:31;;;;;;;0.75;0.30;;;6.20;99.90;;;;;;4900931;29;20032;-76
2023/12/23 01:38:57;;;;;;;0.55;0.20;;;6.40;99.90;;;;;;4900301;29;20051;-75
2023/12/23 01:41:22;;;;;;;0.43;0.20;;;6.30;99.90;;;;;;4899736;29;20100;-76
2023/12/23 01:43:48;;;;;;;0.22;0.10;;;6.30;99.90;;;;;;4901194;29;20048;-76
2023/12/23 01:46:14;;;;;;;2.53;0.20;;;6.20;99.90;;;;;;4899431;29;20247;-76
2023/12/23 01:48:44;;;;;;;0.50;0.20;;;6.10;99.90;;;;;;4898123;29;20029;-76
2023/12/23 01:51:11;;;;;;;1.30;0.68;;;6.00;99.90;;;;;;4899962;29;20036;-76
2023/12/23 01:53:36;;;;;;;1.95;0.80;;;5.90;99.90;;;;;;4900168;29;20123;-75
2023/12/23 01:56:02;;;;;;;0.75;0.50;;;6.00;99.90;;;;;;4899470;29;20501;-76
2023/12/23 01:58:28;;;;;;;0.65;0.30;;;6.10;99.90;;;;;;4900101;29;20036;-75
2023/12/23 02:00:54;;;;;;;0.65;0.30;;;6.20;99.90;;;;;;4898044;29;20478;-76
2023/12/23 02:03:20;;;;;;;0.50;0.20;;;6.00;99.90;;;;;;4897593;29;20663;-76
2023/12/23 02:05:46;;;;;;;0.35;0.30;;;6.00;99.90;;;;;;4901504;29;20036;-76
2023/12/23 02:08:13;;;;;;;0.80;0.35;;;6.20;99.90;;;;;;4899426;29;20032;-76
2023/12/23 02:10:39;;;;;;;0.93;0.30;;;6.40;99.90;;;;;;4900213;29;20043;-75
2023/12/23 02:13:24;;;;;;;1.00;0.40;;;6.80;99.90;;;;;;4898755;29;20475;-75
2023/12/23 02:15:51;;;;;;;0.65;0.20;;;7.00;99.90;;;;;;4900028;29;20119;-77
2023/12/23 02:18:19;;;;;;;0.30;0.10;;;6.90;99.90;;;;;;4898301;29;20039;-76
2023/12/23 02:20:51;;;;;;;0.20;0.20;;;6.60;99.90;;;;;;4898669;29;20056;-75
2023/12/23 02:23:17;;;;;;;0.88;0.40;;;6.10;99.90;;;;;;4898942;29;20586;-76
2023/12/23 02:25:48;;;;;;;0.88;0.40;;;5.90;99.90;;;;;;4901052;29;20028;-76
2023/12/23 02:28:15;;;;;;;1.13;0.40;;;6.20;99.90;;;;;;4897554;29;20487;-76
2023/12/23 02:30:44;;;;;;;1.65;0.40;;;6.10;99.90;;;;;;4899343;29;20036;-76
2023/12/23 02:33:10;;;;;;;1.02;0.40;;;5.90;99.90;;;;;;4897704;29;21575;-76
2023/12/23 02:35:36;;;;;;;2.05;0.85;;;5.80;99.90;;;;;;4900313;29;20066;-76
2023/12/23 02:38:02;;;;;;;2.33;1.00;;;5.70;99.90;;;;;;4898775;29;20476;-76
2023/12/23 02:40:28;;;;;;;1.92;0.80;;;5.90;99.90;;;;;;4898769;29;20047;-75
2023/12/23 02:42:53;;;;;;;1.30;0.70;;;6.00;99.90;;;;;;4899532;29;20040;-75
2023/12/23 02:45:19;;;;;;;0.98;0.30;;;6.10;99.90;;;;;;4899474;29;20040;-75
2023/12/23 02:47:45;;;;;;;2.15;0.25;;;6.00;99.90;;;;;;4897287;29;20028;-76
2023/12/23 02:50:11;;;;;;;0.52;0.30;;;6.50;99.90;;;;;;4898520;29;20099;-76
2023/12/23 02:52:36;;;;;;;1.42;0.43;;;6.50;99.90;;;;;;4898380;29;20040;-75
2023/12/23 02:55:03;;;;;;;1.52;0.40;;;6.40;99.90;;;;;;4899023;29;20112;-77
2023/12/23 02:57:28;;;;;;;0.88;0.32;;;6.30;99.90;;;;;;4898901;29;21328;-76
2023/12/23 02:59:54;;;;;;;0.63;0.35;;;6.10;99.90;;;;;;4898039;29;20032;-76
2023/12/23 03:02:20;;;;;;;0.55;0.38;;;5.90;99.90;;;;;;4897731;29;20189;-76
2023/12/23 03:04:45;;;;;;;1.23;0.60;;;5.90;99.90;;;;;;4898751;29;20176;-76
2023/12/23 03:07:11;;;;;;;0.88;0.28;;;6.00;99.90;;;;;;4897878;29;20056;-76
2023/12/23 03:09:37;;;;;;;0.70;0.30;;;6.30;99.90;;;;;;4899204;29;20092;-76
2023/12/23 03:12:03;;;;;;;0.55;0.20;;;6.70;99.90;;;;;;4898562;29;20159;-76
2023/12/23 03:14:28;;;;;;;0.57;0.20;;;7.00;99.90;;;;;;4897983;29;20498;-76
2023/12/23 03:16:55;;;;;;;0.25;0.10;;;7.50;99.30;;;;;;4900349;29;20040;-76
2023/12/23 03:19:20;;;;;;;0.40;0.17;;;7.60;98.80;;;;;;4898839;29;20524;-75
2023/12/23 03:21:48;;;;;;;0.50;0.40;;;7.40;99.30;;;;;;4896380;29;20050;-76
2023/12/23 03:24:13;;;;;;;0.77;0.38;;;6.80;99.90;;;;;;4898959;29;20079;-77
2023/12/23 03:26:39;;;;;;;0.77;0.30;;;6.10;99.90;;;;;;4899104;29;20164;-76
2023/12/23 03:29:08;;;;;;;1.20;0.30;;;6.10;99.90;;;;;;4896548;29;20589;-75
2023/12/23 03:31:33;;;;;;;0.98;0.30;;;6.10;99.90;;;;;;4898704;29;20144;-75
2023/12/23 03:34:00;;;;;;;0.65;0.20;;;6.30;99.90;;;;;;4900191;29;20514;-75
2023/12/23 03:36:27;;;;;;;1.13;0.43;;;6.60;99.90;;;;;;4895813;29;20063;-76
2023/12/23 03:38:53;;;;;;;0.45;0.17;;;6.60;99.90;;;;;;4898429;29;20509;-76
2023/12/23 03:41:19;;;;;;;0.75;0.20;;;6.30;99.90;;;;;;4898414;29;20036;-75
2023/12/23 03:43:44;;;;;;;2.35;0.75;;;6.10;99.90;;;;;;4898600;29;20058;-76
2023/12/23 03:46:10;;;;;;;1.92;0.50;;;5.90;99.90;;;;;;4895798;29;20036;-76
2023/12/23 03:48:35;;;;;;;2.17;0.70;;;5.80;99.90;;;;;;4896612;29;20123;-75
2023/12/23 03:51:01;;;;;;;1.90;0.70;;;5.80;99.90;;;;;;4895433;29;20028;-76
2023/12/23 03:53:27;;;;;;;0.70;0.30;;;5.70;99.90;;;;;;4897228;29;20066;-76
2023/12/23 03:55:52;;;;;;;1.55;0.32;;;6.40;99.80;;;;;;4899243;29;20067;-75
2023/12/23 03:58:18;;;;;;;2.92;0.68;;;6.40;99.90;;;;;;4896571;29;20086;-76
2023/12/23 04:00:44;;;;;;;1.08;0.38;;;6.20;99.90;;;;;;4896040;29;20468;-77
2023/12/23 04:03:10;;;;;;;0.60;0.35;;;6.00;99.90;;;;;;4895549;29;21314;-76
2023/12/23 04:05:35;;;;;;;1.95;0.40;;;5.90;99.90;;;;;;4892319;29;20041;-77
2023/12/23 04:08:02;;;;;;;1.15;0.35;;;6.10;99.90;;;;;;4892283;29;20051;-76
2023/12/23 04:10:27;;;;;;;1.15;0.40;;;6.20;99.90;;;;;;4894247;29;20036;-76
2023/12/23 04:12:53;;;;;;;1.17;0.30;;;6.10;99.90;;;;;;4891934;29;20036;-76
2023/12/23 04:15:19;;;;;;;0.60;0.28;;;6.60;99.80;;;;;;4893530;29;20498;-77
2023/12/23 04:17:44;;;;;;;0.75;0.30;;;6.50;99.90;;;;;;4890833;29;20111;-75
2023/12/23 04:20:10;;;;;;;0.55;0.20;;;6.60;99.90;;;;;;4889871;29;21879;-76
2023/12/23 04:22:36;;;;;;;1.00;0.30;;;6.40;99.90;;;;;;4890716;29;21263;-76
2023/12/23 04:25:02;;;;;;;0.90;0.30;;;6.00;99.90;;;;;;4895475;29;21247;-76
2023/12/23 04:27:27;;;;;;;0.40;0.20;;;7.00;98.40;;;;;;4888891;29;22706;-78
2023/12/23 04:29:53;;;;;;;0.52;0.10;;;7.20;98.50;;;;;;4889187;29;20044;-77
2023/12/23 04:32:19;;;;;;;2.60;0.50;;;7.80;97.00;;;;;;4891200;29;20039;-76
2023/12/23 04:34:44;;;;;;;1.48;0.50;;;7.40;99.00;;;;;;4889699;29;20032;-76
2023/12/23 04:37:10;;;;;;;0.65;0.35;;;8.90;95.40;;;;;;4888305;29;20123;-76
2023/12/23 04:39:35;;;;;;;0.30;0.20;;;9.00;95.10;;;;;;4890251;29;20047;-77
2023/12/23 04:42:02;;;;;;;0.20;0.20;;;9.00;94.90;;;;;;4889460;29;20143;-76
2023/12/23 04:44:28;;;;;;;1.48;0.17;;;8.90;94.90;;;;;;4891790;29;20052;-76
2023/12/23 04:46:54;;;;;;;0.70;0.30;;;8.90;94.80;;;;;;4888652;29;20048;-75
2023/12/23 04:49:20;;;;;;;1.00;0.30;;;8.90;94.70;;;;;;4889628;29;20059;-76
2023/12/23 04:51:46;;;;;;;2.70;0.60;;;9.00;94.60;;;;;;4889363;29;20028;-77
2023/12/23 04:54:12;;;;;;;1.90;0.70;;;8.70;95.90;;;;;;4891382;29;20040;-76
2023/12/23 04:56:38;;;;;;;0.20;0.20;;;7.20;98.00;;;;;;4889346;29;20638;-77
2023/12/23 04:59:03;;;;;;;0.43;0.30;;;8.60;95.20;;;;;;4889644;29;20122;-76
2023/12/23 05:01:29;;;;;;;1.48;0.70;;;9.00;94.60;;;;;;4890759;29;20036;-77
2023/12/23 05:03:55;;;;;;;0.98;0.52;;;8.30;96.90;;;;;;4890038;29;20054;-77
2023/12/23 05:06:21;;;;;;;0.85;0.30;;;8.10;96.30;;;;;;4891183;29;20036;-76
2023/12/23 05:08:47;;;;;;;1.83;0.77;;;9.00;94.90;;;;;;4891730;29;20040;-76
2023/12/23 05:11:13;;;;;;;2.00;0.90;;;8.70;96.30;;;;;;4890287;29;20040;-76
2023/12/23 05:13:39;;;;;;;3.20;0.30;;;7.80;97.20;;;;;;4890779;29;20048;-76
2023/12/23 05:16:05;;;;;;;0.85;0.20;;;9.20;94.80;;;;;;4890918;29;20104;-77
2023/12/23 05:18:30;;;;;;;1.13;0.40;;;9.50;94.20;;;;;;4889507;29;20032;-77
2023/12/23 05:20:56;;;;;;;0.65;0.30;;;9.50;94.10;;;;;;4890202;29;20071;-76
2023/12/23 05:23:22;;;;;;;1.42;0.52;;;9.30;94.50;;;;;;4891708;29;20071;-77
2023/12/23 05:25:48;;;;;;;2.22;0.80;;;8.80;95.20;;;;;;4891053;29;20092;-76
2023/12/23 05:28:13;;;;;;;1.58;0.63;;;8.10;97.30;;;;;;4889111;29;20055;-76
2023/12/23 05:30:39;;;;;;;1.90;0.93;;;7.50;98.50;;;;;;4891617;29;21024;-76
2023/12/23 05:33:05;;;;;;;1.02;0.40;;;7.20;98.50;;;;;;4890347;29;20693;-76
2023/12/23 05:35:31;;;;;;;0.82;0.30;;;8.00;96.20;;;;;;4890513;29;20040;-75
2023/12/23 05:37:57;;;;;;;1.17;0.45;;;8.70;95.10;;;;;;4890367;29;20410;-76
2023/12/23 05:40:22;;;;;;;1.08;0.30;;;9.20;94.40;;;;;;4891277;29;20091;-77
2023/12/23 05:42:48;;;;;;;0.20;0.10;;;9.70;93.80;;;;;;4887407;29;20534;-76
2023/12/23 05:45:14;;;;;;;0.35;0.30;;;9.30;94.10;;;;;;4890863;29;20104;-76
2023/12/23 05:47:40;;;;;;;2.20;0.40;;;9.20;94.20;;;;;;4887737;29;20043;-77
2023/12/23 05:50:06;;;;;;;0.60;0.20;;;9.40;94.00;;;;;;4892249;29;20044;-77
2023/12/23 05:52:32;;;;;;;0.35;0.10;;;9.30;94.20;;;;;;4893903;29;20035;-77
2023/12/23 05:54:58;;;;;;;1.45;0.60;;;9.40;94.00;;;;;;4893518;29;20058;-76
2023/12/23 05:57:23;;;;;;;3.10;0.57;;;8.90;95.70;;;;;;4892636;29;20117;-76
2023/12/23 05:59:49;;;;;;;0.13;0.10;;;8.70;95.00;;;;;;4891377;29;20051;-76
2023/12/23 06:02:15;;;;;;;0.15;0.10;;;9.60;93.90;;;;;;4892784;29;20359;-76
2023/12/23 06:04:40;;;;;;;2.55;0.35;;;9.30;94.20;;;;;;4892823;29;20634;-77
2023/12/23 06:07:06;;;;;;;0.82;0.30;;;9.30;94.20;;;;;;4893621;29;20040;-76
2023/12/23 06:09:31;;;;;;;0.47;0.30;;;9.30;94.00;;;;;;4894096;29;20043;-76
2023/12/23 06:11:57;;;;;;;1.08;0.30;;;9.30;94.20;;;;;;4893404;29;20047;-77
2023/12/23 06:14:23;;;;;;;0.75;0.30;;;8.90;94.80;;;;;;4893097;29;20044;-77
2023/12/23 06:16:48;;;;;;;1.63;0.63;;;8.40;95.80;;;;;;4892999;29;20040;-77
2023/12/23 06:19:14;;;;;;;0.73;0.43;;;8.20;96.30;;;;;;4894360;29;20545;-77
2023/12/23 06:21:45;;;;;;;0.25;0.15;;;8.10;96.30;;;;;;4893248;29;20522;-76
2023/12/23 06:24:12;;;;;;;0.85;0.20;;;8.20;95.60;;;;;;4893031;29;20045;-76
2023/12/23 06:26:37;;;;;;;0.20;0.20;;;8.70;95.30;;;;;;4891562;29;20126;-76
2023/12/23 06:29:03;;;;;;;0.38;0.30;;;8.80;94.80;;;;;;4891407;29;20486;-76
2023/12/23 06:31:29;;;;;;;0.93;0.43;;;9.20;94.40;;;;;;4891768;29;20135;-76
2023/12/23 06:33:54;;;;;;;0.38;0.22;;;9.10;94.60;;;;;;4893803;29;20068;-76
2023/12/23 06:36:20;;;;;;;0.75;0.40;;;9.00;94.60;;;;;;4891961;29;20036;-76
2023/12/23 06:38:46;;;;;;;0.88;0.30;;;9.30;94.30;;;;;;4891132;29;20024;-77
2023/12/23 06:41:12;;;;;;;0.85;0.20;;;9.20;94.40;;;;;;4891530;29;20707;-76
2023/12/23 06:43:38;;;;;;;0.75;0.20;;;9.00;94.70;;;;;;4892349;29;20032;-77
2023/12/23 06:46:04;;;;;;;1.00;0.20;;;9.10;94.50;;;;;;4891601;29;20042;-77
2023/12/23 06:48:29;;;;;;;0.13;0.13;;;9.00;94.70;;;;;;4889474;29;20039;-77
2023/12/23 06:50:55;;;;;;;1.17;0.40;;;9.20;94.40;;;;;;4890475;29;20179;-77
2023/12/23 06:53:21;;;;;;;0.40;0.20;;;9.20;94.30;;;;;;4891908;29;20075;-76
2023/12/23 06:55:46;;;;;;;0.32;0.17;;;9.00;94.60;;;;;;4893929;29;20487;-78
2023/12/23 06:58:12;;;;;;;1.17;0.30;;;8.80;94.80;;;;;;4891189;29;20067;-79
2023/12/23 07:00:37;;;;;;;1.60;0.47;;;8.60;95.30;;;;;;4896145;29;20028;-76
2023/12/23 07:03:05;;;;;;;0.30;0.20;;;8.50;95.70;;;;;;4891175;29;20048;-75
2023/12/23 07:05:31;;;;;;;1.70;0.40;;;7.90;96.40;;;;;;4892721;29;20407;-74
2023/12/23 07:07:56;;;;;;;1.10;0.40;;;8.00;96.20;;;;;;4890424;29;20032;-76
2023/12/23 07:10:22;;;;;;;0.50;0.20;;;8.00;96.20;;;;;;4889111;29;20032;-75
2023/12/23 07:12:48;;;;;;;0.70;0.35;;;8.00;96.20;;;;;;4891681;29;20135;-76
2023/12/23 07:15:13;;;;;;;0.20;0.20;;;8.10;96.00;;;;;;4890274;29;20032;-75
2023/12/23 07:17:39;;;;;;;0.88;0.10;;;8.30;95.70;;;;;;4891515;29;20489;-76
2023/12/23 07:20:05;;;;;;;0.77;0.20;;;8.70;95.10;;;;;;4893046;29;20646;-75
2023/12/23 07:22:31;;;;;;;1.00;0.20;;;8.50;95.60;;;;;;4891954;29;20037;-76
2023/12/23 07:24:57;;;;;;;0.38;0.10;;;8.30;95.70;;;;;;4891339;29;20086;-75
2023/12/23 07:27:22;;;;;;;1.45;0.35;;;7.90;96.50;;;;;;4890571;29;20435;-74
2023/12/23 07:29:48;;;;;;;0.57;0.30;;;8.10;96.00;;;;;;4888628;29;20038;-74
2023/12/23 07:32:14;;;;;;;0.40;0.20;;;8.40;95.80;;;;;;4891115;29;20040;-75
2023/12/23 07:34:40;;;;;;;0.35;0.30;;;8.40;95.70;;;;;;4892457;29;20150;-74
2023/12/23 07:37:07;;;;;;;0.50;0.30;;;8.50;95.50;;;;;;4891162;29;21038;-74
2023/12/23 07:39:33;;;;;;;0.80;0.32;;;8.50;95.50;;;;;;4891881;29;20040;-76
2023/12/23 07:42:00;;;;;;;0.82;0.20;;;8.30;96.00;;;;;;4894500;29;20028;-75
2023/12/23 07:44:25;;;;;;;0.52;0.30;;;8.40;95.70;;;;;;4891160;29;21092;-75
2023/12/23 07:46:51;;;;;;;1.70;0.60;;;8.50;95.70;;;;;;4890211;29;20115;-77
2023/12/23 07:49:16;;;;;;;2.47;0.43;;;8.40;95.90;;;;;;4888486;29;20044;-81
2023/12/23 07:51:42;;;;;;;1.17;0.68;;;8.50;95.80;;;;;;4891248;29;20036;-78
2023/12/23 07:54:08;;;;;;;2.17;0.65;;;8.50;95.70;;;;;;4891323;29;20701;-77
2023/12/23 07:56:34;;;;;;;2.85;0.98;;;8.80;95.10;;;;;;4891451;29;20046;-78
2023/12/23 07:58:59;;;;;;;1.83;0.82;;;9.20;95.00;;;;;;4890235;29;20035;-78
2023/12/23 08:01:25;;;;;;;1.63;0.60;;;9.30;94.70;;;;;;4891455;29;20042;-77
2023/12/23 08:03:51;;;;;;;2.30;0.60;;;9.10;95.20;;;;;;4889364;29;20048;-77
2023/12/23 08:06:18;;;;;;;1.55;0.60;;;9.30;94.70;;;;;;4889623;29;20082;-79
2023/12/23 08:08:44;;;;;;;1.67;0.75;;;9.30;94.90;;;;;;4891320;29;20132;-77
2023/12/23 08:11:10;;;;;;;3.17;1.17;;;9.40;94.70;;;;;;4890979;29;20036;-78
2023/12/23 08:13:36;;;;;;;2.72;1.10;;;9.20;95.00;;;;;;4891091;29;20040;-85
2023/12/23 08:16:02;;;;;;;2.75;0.98;;;9.10;94.80;;;;;;4892889;29;20115;-78
2023/12/23 08:18:29;;;;;;;2.65;0.75;;;9.20;94.90;;;;;;4893250;29;20045;-78
2023/12/23 08:20:55;;;;;;;1.92;0.70;;;9.30;94.80;;;;;;4890254;29;20052;-77
2023/12/23 08:23:20;;;;;;;1.27;0.50;;;9.30;94.90;;;;;;4891346;29;20048;-77
2023/12/23 08:25:47;;;;;;;2.33;0.63;;;9.20;94.70;;;;;;4891257;29;20109;-77
2023/12/23 08:28:12;;;;;;;3.42;0.45;;;9.20;95.00;;;;;;4890176;29;20071;-78
2023/12/23 08:30:39;;;;;;;2.33;0.70;;;9.00;95.20;;;;;;4891492;29;20124;-80
2023/12/23 08:33:05;;;;;;;1.67;0.50;;;9.80;97.00;;;;;;4892275;29;20064;-79
2023/12/23 08:35:31;;;;;;;0.80;0.40;;;10.00;94.90;;;;;;4889633;29;20179;-77
2023/12/23 08:37:58;;;;;;;2.08;0.80;;;9.80;94.60;;;;;;4893109;29;20055;-77
2023/12/23 08:40:24;;;;;;;2.20;0.65;;;9.80;94.70;;;;;;4892402;29;20071;-76
2023/12/23 08:42:50;;;;;;;0.98;0.45;;;9.80;94.80;;;;;;4889960;29;20175;-77
2023/12/23 08:45:17;;;;;;;1.23;0.55;;;9.80;94.60;;;;;;4890353;29;20715;-76
2023/12/23 08:47:42;;;;;;;0.47;0.20;;;9.70;94.60;;;;;;4890280;29;20491;-77
2023/12/23 08:50:08;;;;;;;1.10;0.38;;;9.80;94.30;;;;;;4888762;29;20036;-75
2023/12/23 08:52:34;;;;;;;0.52;0.17;;;10.00;94.30;;;;;;4894602;29;20036;-78
2023/12/23 08:54:59;;;;;;;0.47;0.10;;;10.00;94.40;;;;;;4894326;29;20044;-76
2023/12/23 08:57:25;;;;;;;0.47;0.25;;;10.40;93.80;;;;;;4895051;29;20028;-76
2023/12/23 08:59:51;;;;;;;1.00;0.30;;;10.30;94.00;;;;;;4896422;29;20034;-76
2023/12/23 09:02:16;;;;;;;0.30;0.20;;;10.90;93.10;;;;;;4893704;29;20040;-78
2023/12/23 09:04:42;;;;;;;1.65;0.15;;;11.10;92.90;;;;;;4896139;29;20051;-76
2023/12/23 09:07:08;;;;;;;2.58;0.30;;;10.80;93.20;;;;;;4894272;29;21624;-77
2023/12/23 09:09:34;;;;;;;0.52;0.20;;;10.40;93.60;;;;;;4896322;29;20570;-78
2023/12/23 09:11:59;;;;;;;1.02;0.20;;;10.50;93.60;;;;;;4895604;29;20043;-77
2023/12/23 09:14:26;;;;;;;3.33;0.20;;;10.40;93.70;;;;;;4897436;29;20028;-77
2023/12/23 09:16:52;;;;;;;0.47;0.15;;;10.50;93.80;;;;;;4897362;29;20032;-77
2023/12/23 09:19:17;;;;;;;1.50;0.52;;;10.20;94.40;;;;;;4895827;29;20501;-76
2023/12/23 09:21:43;;;;;;;12.93;6.30;;;10.10;94.20;;;;;;4893607;29;20040;-76
2023/12/23 09:24:09;;;;;;;11.68;4.05;;;10.00;94.30;;;;;;4894259;29;20072;-77
2023/12/23 09:26:35;;;;;;;3.05;1.17;;;10.00;95.00;;;;;;4893515;29;20043;-77
2023/12/23 09:29:01;;;;;;;1.05;0.40;;;10.10;93.90;;;;;;4899133;29;20050;-77
2023/12/23 09:31:27;;;;;;;0.28;0.17;;;10.20;94.10;;;;;;4897855;29;20483;-77
2023/12/23 09:33:52;;;;;;;1.85;0.90;;;10.10;94.20;;;;;;4898830;29;20047;-77
2023/12/23 09:36:18;;;;;;;1.08;0.30;;;10.10;93.80;;;;;;4898495;29;20048;-77
2023/12/23 09:38:44;;;;;;;1.33;0.60;;;10.20;95.70;;;;;;4899605;29;20543;-76
2023/12/23 09:41:09;;;;;;;0.52;0.20;;;10.40;94.00;;;;;;4899367;29;20044;-76
2023/12/23 09:43:35;;;;;;;0.35;0.10;;;10.00;94.50;;;;;;4899451;29;20169;-76
2023/12/23 09:46:03;;;;;;;0.00;0.00;;;10.10;94.00;;;;;;4899474;29;20036;-76
2023/12/23 09:48:29;;;;;;;0.22;0.10;;;10.20;94.20;;;;;;4899582;29;20649;-76
2023/12/23 09:50:55;;;;;;;0.32;0.10;;;10.10;94.20;;;;;;4899422;29;20035;-76
2023/12/23 09:53:21;;;;;;;1.05;0.40;;;10.10;94.50;;;;;;4899237;29;20478;-76
2023/12/23 09:55:47;;;;;;;0.95;0.20;;;10.30;93.50;;;;;;4899245;29;20667;-76
2023/12/23 09:58:13;;;;;;;1.17;0.40;;;10.40;93.70;;;;;;4897914;29;20032;-76
2023/12/23 10:00:42;;;;;;;1.98;0.52;;;10.00;94.70;;;;;;4898931;29;20231;-76
2023/12/23 10:03:07;;;;;;;1.63;0.57;;;10.00;94.30;;;;;;4897947;29;20044;-76
2023/12/23 10:05:42;;;;;;;2.80;0.30;;;10.20;94.00;;;;;;4899387;29;20479;-76
2023/12/23 10:08:08;;;;;;;1.95;0.70;;;10.00;94.80;;;;;;4898198;29;20500;-76
2023/12/23 10:10:33;;;;;;;0.93;0.30;;;10.70;93.40;;;;;;4899363;29;20044;-76
2023/12/23 10:12:59;;;;;;;0.50;0.10;;;10.80;93.20;;;;;;4898032;29;20096;-76
2023/12/23 10:15:25;;;;;;;0.65;0.10;;;10.60;93.60;;;;;;4898622;29;20040;-76
2023/12/23 10:17:52;;;;;;;0.32;0.20;;;10.50;93.70;;;;;;4899371;29;20032;-76
2023/12/23 10:20:17;;;;;;;0.70;0.17;;;10.70;93.60;;;;;;4898658;29;20586;-76
2023/12/23 10:22:44;;;;;;;0.20;0.10;;;10.80;93.70;;;;;;4896995;29;20899;-76
2023/12/23 10:25:10;;;;;;;0.80;0.13;;;10.50;94.20;;;;;;4898996;29;20043;-76
2023/12/23 10:27:40;;;;;;;0.65;0.20;;;10.30;94.20;;;;;;4898787;29;20036;-76
2023/12/23 10:30:09;;;;;;;1.30;0.50;;;10.30;94.10;;;;;;4897505;29;20040;-76
2023/12/23 10:32:37;;;;;;;0.93;0.30;;;10.60;93.50;;;;;;4897582;29;20043;-76
2023/12/23 10:35:05;;;;;;;3.90;0.30;;;10.60;93.80;;;;;;4898688;29;20040;-75
2023/12/23 10:37:33;;;;;;;1.25;0.30;;;10.50;94.30;;;;;;4898610;29;20119;-76
2023/12/23 10:40:26;;;;;;;0.20;0.17;;;10.40;94.10;;;;;;4897534;29;20567;-76
2023/12/23 10:42:54;;;;;;;0.10;0.10;;;10.40;93.70;;;;;;4897285;29;20155;-76
2023/12/23 10:45:21;;;;;;;0.35;0.20;;;10.50;93.80;;;;;;4897326;29;20043;-76
2023/12/23 10:47:49;;;;;;;0.30;0.10;;;10.40;93.80;;;;;;4897825;29;20040;-76
2023/12/23 10:50:15;;;;;;;0.20;0.10;;;10.50;93.70;;;;;;4897285;29;20126;-76
2023/12/23 10:52:41;;;;;;;0.32;0.10;;;10.60;93.40;;;;;;4897570;29;20071;-76
2023/12/23 10:55:10;;;;;;;1.85;0.30;;;10.70;94.00;;;;;;4897669;29;20610;-76
2023/12/23 10:57:37;;;;;;;1.17;0.47;;;10.80;94.10;;;;;;4898599;29;20039;-76
2023/12/23 11:00:04;;;;;;;1.63;0.30;;;11.10;93.30;;;;;;4898478;29;20104;-76
2023/12/23 11:02:31;;;;;;;0.55;0.20;;;11.20;93.30;;;;;;4897891;29;20131;-76
2023/12/23 11:05:00;;;;;;;0.68;0.22;;;11.30;93.90;;;;;;4898368;29;20048;-76
2023/12/23 11:07:30;;;;;;;0.40;0.10;;;11.50;92.80;;;;;;4898017;29;20032;-76
2023/12/23 11:10:01;;;;;;;0.45;0.22;;;11.60;93.00;;;;;;4898650;29;20619;-76
2023/12/23 11:12:30;;;;;;;1.92;0.40;;;11.50;93.50;;;;;;4897499;29;20577;-76
2023/12/23 11:14:59;;;;;;;1.83;0.90;;;11.50;94.60;;;;;;4897503;29;20040;-76
2023/12/23 11:17:27;;;;;;;2.72;1.05;;;11.50;95.00;;;;;;4896598;29;20044;-76
2023/12/23 11:19:58;;;;;;;2.97;1.27;;;11.40;94.80;;;;;;4897762;29;20086;-76
2023/12/23 11:22:37;;;;;;;2.50;0.80;;;11.50;94.90;;;;;;4897431;29;20431;-76
2023/12/23 11:25:03;;;;;;;1.55;0.65;;;11.60;94.60;;;;;;4896419;29;20044;-76
2023/12/23 11:27:37;;;;;;;1.67;0.85;;;11.80;94.10;;;;;;4897642;29;20107;-76
2023/12/23 11:30:07;;;;;;;0.82;0.43;;;11.90;93.90;;;;;;4897798;29;20078;-76
2023/12/23 11:32:41;;;;;;;2.58;0.60;;;11.90;93.90;;;;;;4897503;29;20487;-76
2023/12/23 11:35:14;;;;;;;1.08;0.82;;;12.00;93.60;;;;;;4897103;29;20040;-76
2023/12/23 11:37:54;;;;;;;0.77;0.38;;;12.00;92.80;;;;;;4896191;29;20036;-76
2023/12/23 11:40:20;;;;;;;0.57;0.20;;;12.20;92.80;;;;;;4896557;29;20036;-76
2023/12/23 11:42:48;;;;;;;0.80;0.30;;;12.30;92.50;;;;;;4898560;29;20043;-76
2023/12/23 11:45:14;;;;;;;0.43;0.25;;;12.30;92.40;;;;;;4896727;29;20123;-76
2023/12/23 11:47:41;;;;;;;0.90;0.25;;;12.30;92.40;;;;;;4896770;29;20044;-76
2023/12/23 11:50:07;;;;;;;0.80;0.40;;;12.60;92.10;;;;;;4896277;29;20048;-76
2023/12/23 11:52:37;;;;;;;0.55;0.20;;;12.70;92.60;;;;;;4896495;29;20071;-76
2023/12/23 11:55:03;;;;;;;1.45;0.40;;;12.70;92.70;;;;;;4896064;29;21134;-76
2023/12/23 11:57:31;;;;;;;2.28;1.02;;;12.60;92.10;;;;;;4896185;29;20110;-76
2023/12/23 11:59:58;;;;;;;1.17;0.60;;;12.60;93.00;;;;;;4897031;29;20047;-76
2023/12/23 12:02:25;;;;;;;1.30;0.68;;;12.50;93.60;;;;;;4896833;29;20040;-76
2023/12/23 12:04:51;;;;;;;3.13;1.30;;;12.40;93.80;;;;;;4896542;29;20118;-77
2023/12/23 12:07:18;;;;;;;2.33;1.05;;;12.40;94.20;;;;;;4896297;29;20040;-76
2023/12/23 12:09:44;;;;;;;3.10;0.57;;;12.40;94.40;;;;;;4897024;29;20044;-76
2023/12/23 12:12:10;;;;;;;3.00;0.60;;;12.30;93.30;;;;;;4896290;29;20032;-77
2023/12/23 12:14:35;;;;;;;1.33;0.38;;;12.40;92.90;;;;;;4896746;29;20530;-77
2023/12/23 12:17:01;;;;;;;2.97;0.52;;;12.40;93.20;;;;;;4896475;29;20070;-76
2023/12/23 12:19:26;;;;;;;1.02;0.30;;;12.40;93.20;;;;;;4895396;29;20091;-76
2023/12/23 12:21:52;;;;;;;0.82;0.30;;;12.50;92.60;;;;;;4895959;29;20151;-77
2023/12/23 12:24:18;;;;;;;0.98;0.35;;;12.50;92.40;;;;;;4895150;29;20465;-76
2023/12/23 12:26:44;;;;;;;2.28;0.20;;;12.50;92.40;;;;;;4897208;29;20036;-77
2023/12/23 12:29:09;;;;;;;2.53;0.63;;;12.50;92.40;;;;;;4879342;29;20039;-77
2023/12/23 12:31:37;;;;;;;1.02;0.40;;;12.60;92.20;;;;;;4896561;29;20035;-77
2023/12/23 12:34:02;;;;;;;1.35;0.47;;;12.60;92.10;;;;;;4896749;29;21357;-77
2023/12/23 12:36:28;;;;;;;2.08;0.38;;;12.60;92.90;;;;;;4896107;29;20637;-77
2023/12/23 12:38:53;;;;;;;2.88;0.25;;;12.50;92.40;;;;;;4896443;29;20475;-77
2023/12/23 12:41:19;;;;;;;0.10;0.10;;;12.60;92.80;;;;;;4896960;29;20625;-77
2023/12/23 12:43:45;;;;;;;0.15;0.10;;;12.60;92.60;;;;;;4896068;29;20051;-77
2023/12/23 12:46:16;;;;;;;1.27;0.10;;;12.60;92.50;;;;;;4895984;29;20724;-77
2023/12/23 12:48:44;;;;;;;0.80;0.30;;;12.70;92.50;;;;;;4896997;29;20092;-77